createdAt,value
2023-03-27T00:01:52.827Z,96671.31
2023-03-27T00:04:21.496Z,96680.78
2023-03-27T00:06:49.979Z,96678.97
2023-03-27T00:09:19.177Z,96679.28
2023-03-27T00:11:47.912Z,96678.75
2023-03-27T00:14:16.480Z,96683.75
2023-03-27T00:16:46.427Z,96679.09
2023-03-27T00:19:16.044Z,96671.84
2023-03-27T00:21:45.086Z,96662.88
2023-03-27T00:24:14.123Z,96659.59
2023-03-27T00:26:43.163Z,96664.97
2023-03-27T00:29:13.450Z,96665.19
2023-03-27T00:31:41.565Z,96665.59
2023-03-27T00:34:09.621Z,96665.28
2023-03-27T00:36:39.089Z,96664.59
2023-03-27T00:39:07.198Z,96666.59
2023-03-27T00:41:35.248Z,96658.22
2023-03-27T00:44:04.184Z,96666.25
2023-03-27T00:46:41.652Z,96662.31
2023-03-27T00:49:13.124Z,96661.47
2023-03-27T00:51:46.798Z,96660.38
2023-03-27T00:54:17.511Z,96655.38
2023-03-27T00:56:46.840Z,96663.44
2023-03-27T00:59:19.068Z,96651.56
2023-03-27T01:01:48.131Z,96656.09
2023-03-27T01:04:21.543Z,96654.28
2023-03-27T01:06:54.870Z,96646.31
2023-03-27T01:09:23.236Z,96642.28
2023-03-27T01:12:08.206Z,96641.53
2023-03-27T01:14:49.318Z,96643.56
2023-03-27T01:17:30.687Z,96631.25
2023-03-27T01:20:42.952Z,96630.28
2023-03-27T01:23:59.843Z,96626.25
2023-03-27T01:26:58.438Z,96620.56
2023-03-27T01:29:48.413Z,96615.56
2023-03-27T01:32:45.415Z,96605.78
2023-03-27T01:35:33.320Z,96603.03
2023-03-27T01:38:23.944Z,96599.28
2023-03-27T01:41:01.374Z,96595.78
2023-03-27T01:43:36.535Z,96593.34
2023-03-27T01:46:09.197Z,96582.88
2023-03-27T01:48:44.933Z,96580.56
2023-03-27T01:51:18.281Z,96570.66
2023-03-27T01:53:52.206Z,96571.63
2023-03-27T01:56:26.907Z,96565.97
2023-03-27T01:59:04.135Z,96570.72
2023-03-27T02:01:37.559Z,96565.44
2023-03-27T02:04:10.378Z,96569.91
2023-03-27T02:06:41.930Z,96564.84
2023-03-27T02:09:17.494Z,96564.53
2023-03-27T02:11:54.289Z,96558.88
2023-03-27T02:14:27.694Z,96558.66
2023-03-27T02:17:00.140Z,96557.09
2023-03-27T02:19:34.781Z,96552.53
2023-03-27T02:22:03.587Z,96557.25
2023-03-27T02:24:43.505Z,96551.94
2023-03-27T02:27:18.339Z,96545.16
2023-03-27T02:29:57.540Z,96543.91
2023-03-27T02:32:41.347Z,96543.91
2023-03-27T02:35:28.196Z,96548.22
2023-03-27T02:38:05.466Z,96550.22
2023-03-27T02:40:59.812Z,96548.88
2023-03-27T02:44:00.539Z,96548.34
2023-03-27T02:46:54.533Z,96550.53
2023-03-27T02:49:28.630Z,96547.03
2023-03-27T02:52:01.814Z,96548.22
2023-03-27T02:54:33.580Z,96548.72
2023-03-27T02:57:09.504Z,96559.56
2023-03-27T03:00:18.452Z,96564.78
2023-03-27T03:02:53.641Z,96560.00
2023-03-27T03:05:24.377Z,96563.06
2023-03-27T03:07:54.390Z,96565.38
2023-03-27T03:10:27.723Z,96564.16
2023-03-27T03:12:55.800Z,96570.78
2023-03-27T03:15:25.274Z,96573.09
2023-03-27T03:17:53.635Z,96577.19
2023-03-27T03:20:21.724Z,96579.59
2023-03-27T03:22:49.851Z,96585.41
2023-03-27T03:25:19.947Z,96575.91
2023-03-27T03:27:48.186Z,96581.63
2023-03-27T03:30:16.902Z,96580.59
2023-03-27T03:33:01.994Z,96576.22
2023-03-27T03:35:30.534Z,96581.00
2023-03-27T03:38:01.028Z,96584.19
2023-03-27T03:40:34.722Z,96578.97
2023-03-27T03:43:02.752Z,96575.91
2023-03-27T03:45:31.597Z,96573.75
2023-03-27T03:48:02.618Z,96576.56
2023-03-27T03:50:31.102Z,96576.00
2023-03-27T03:52:59.476Z,96575.91
2023-03-27T03:55:27.577Z,96576.91
2023-03-27T03:57:55.743Z,96574.78
2023-03-27T04:00:28.175Z,96570.41
2023-03-27T04:02:58.472Z,96566.69
2023-03-27T04:05:28.165Z,96572.41
2023-03-27T04:08:00.220Z,96564.22
2023-03-27T04:10:34.888Z,96572.78
2023-03-27T04:13:07.137Z,96573.28
2023-03-27T04:15:39.299Z,96566.38
2023-03-27T04:18:33.071Z,96564.72
2023-03-27T04:21:06.358Z,96570.00
2023-03-27T04:23:34.568Z,96561.75
2023-03-27T04:26:04.034Z,96571.75
2023-03-27T04:28:55.441Z,96566.81
2023-03-27T04:31:46.733Z,96564.72
2023-03-27T04:34:39.303Z,96570.72
2023-03-27T04:37:27.860Z,96568.69
2023-03-27T04:40:25.954Z,96568.63
2023-03-27T04:42:56.014Z,96568.34
2023-03-27T04:45:25.778Z,96563.84
2023-03-27T04:47:54.877Z,96559.00
2023-03-27T04:50:23.613Z,96555.13
2023-03-27T04:52:58.698Z,96572.88
2023-03-27T04:55:28.177Z,96563.22
2023-03-27T04:57:56.696Z,96564.16
2023-03-27T05:00:24.865Z,96562.50
2023-03-27T05:03:15.428Z,96561.25
2023-03-27T05:05:59.471Z,96563.19
2023-03-27T05:08:28.932Z,96561.38
2023-03-27T05:10:57.554Z,96566.97
2023-03-27T05:13:26.341Z,96568.28
2023-03-27T05:15:54.589Z,96565.63
2023-03-27T05:18:24.993Z,96564.63
2023-03-27T05:20:53.347Z,96564.28
2023-03-27T05:23:21.410Z,96565.34
2023-03-27T05:25:59.819Z,96566.59
2023-03-27T05:28:37.230Z,96556.38
2023-03-27T05:31:05.724Z,96565.44
2023-03-27T05:33:42.290Z,96559.13
2023-03-27T05:36:11.550Z,96557.63
2023-03-27T05:38:44.428Z,96559.94
2023-03-27T05:41:32.542Z,96566.47
2023-03-27T05:44:03.714Z,96574.16
2023-03-27T05:46:36.466Z,96566.81
2023-03-27T05:49:11.466Z,96571.59
2023-03-27T05:51:47.285Z,96570.41
2023-03-27T05:54:20.829Z,96573.00
2023-03-27T05:56:58.201Z,96572.47
2023-03-27T05:59:26.934Z,96581.66
2023-03-27T06:02:00.642Z,96582.31
2023-03-27T06:04:42.416Z,96587.16
2023-03-27T06:07:15.106Z,96595.75
2023-03-27T06:09:45.237Z,96595.13
2023-03-27T06:12:33.490Z,96591.50
2023-03-27T06:15:11.924Z,96604.84
2023-03-27T06:17:52.431Z,96603.63
2023-03-27T06:20:22.801Z,96610.38
2023-03-27T06:22:56.510Z,96617.53
2023-03-27T06:25:34.538Z,96617.50
2023-03-27T06:28:07.154Z,96615.00
2023-03-27T06:30:42.273Z,96620.78
2023-03-27T06:33:29.823Z,96615.63
2023-03-27T06:36:01.318Z,96620.59
2023-03-27T06:38:33.033Z,96619.75
2023-03-27T06:41:02.859Z,96624.41
2023-03-27T06:43:52.635Z,96624.06
2023-03-27T06:46:42.833Z,96622.50
2023-03-27T06:49:39.230Z,96620.44
2023-03-27T06:52:15.387Z,96619.22
2023-03-27T06:54:44.852Z,96624.28
2023-03-27T06:57:13.747Z,96622.19
2023-03-27T06:59:51.569Z,96625.03
2023-03-27T07:02:24.252Z,96622.56
2023-03-27T07:05:13.036Z,96631.97
2023-03-27T07:07:43.996Z,96633.94
2023-03-27T07:10:13.308Z,96629.63
2023-03-27T07:12:45.557Z,96629.53
2023-03-27T07:15:18.840Z,96635.00
2023-03-27T07:17:54.145Z,96627.00
2023-03-27T07:20:22.784Z,96629.56
2023-03-27T07:22:51.285Z,96634.59
2023-03-27T07:25:41.169Z,96632.13
2023-03-27T07:28:16.870Z,96634.69
2023-03-27T07:30:46.706Z,96638.38
2023-03-27T07:33:15.112Z,96642.47
2023-03-27T07:35:44.188Z,96647.66
2023-03-27T07:38:41.466Z,96647.06
2023-03-27T07:41:21.115Z,96653.34
2023-03-27T07:44:01.729Z,96647.72
2023-03-27T07:46:42.369Z,96656.56
2023-03-27T07:49:11.252Z,96648.84
2023-03-27T07:51:40.033Z,96644.84
2023-03-27T07:54:11.842Z,96653.19
2023-03-27T07:56:40.935Z,96652.72
2023-03-27T07:59:32.356Z,96655.41
2023-03-27T08:02:17.444Z,96654.91
2023-03-27T08:04:46.306Z,96656.25
2023-03-27T08:07:15.459Z,96659.31
2023-03-27T08:09:44.493Z,96658.66
2023-03-27T08:12:12.659Z,96656.59
2023-03-27T08:14:45.744Z,96668.53
2023-03-27T08:17:28.648Z,96673.63
2023-03-27T08:19:57.264Z,96669.63
2023-03-27T08:22:26.598Z,96665.19
2023-03-27T08:25:13.577Z,96663.31
2023-03-27T08:27:42.358Z,96671.69
2023-03-27T08:30:13.503Z,96684.81
2023-03-27T08:32:44.088Z,96679.59
2023-03-27T08:35:12.557Z,96679.53
2023-03-27T08:37:42.394Z,96678.13
2023-03-27T08:40:37.872Z,96681.94
2023-03-27T08:43:26.353Z,96675.88
2023-03-27T08:46:00.881Z,96667.72
2023-03-27T08:48:35.056Z,96678.22
2023-03-27T08:51:06.979Z,96678.59
2023-03-27T08:53:42.838Z,96680.00
2023-03-27T08:56:15.386Z,96684.16
2023-03-27T08:58:46.859Z,96673.75
2023-03-27T09:01:31.231Z,96702.22
2023-03-27T09:04:15.198Z,96675.81
2023-03-27T09:06:55.942Z,96665.56
2023-03-27T09:09:40.277Z,96700.03
2023-03-27T09:12:25.981Z,96708.56
2023-03-27T09:14:57.403Z,96704.16
2023-03-27T09:17:32.492Z,96694.00
2023-03-27T09:20:18.355Z,96678.13
2023-03-27T09:22:52.941Z,96687.97
2023-03-27T09:25:35.709Z,96697.25
2023-03-27T09:28:37.142Z,96654.63
2023-03-27T09:31:21.775Z,96713.69
2023-03-27T09:33:50.371Z,96717.44
2023-03-27T09:36:20.041Z,96700.19
2023-03-27T09:38:51.824Z,96727.41
2023-03-27T09:41:27.030Z,96672.00
2023-03-27T09:44:02.923Z,96729.06
2023-03-27T09:46:34.219Z,96719.91
2023-03-27T09:49:06.745Z,96691.78
2023-03-27T09:51:44.752Z,96688.63
2023-03-27T09:54:22.319Z,96753.66
2023-03-27T09:56:53.488Z,96718.69
2023-03-27T09:59:28.630Z,96689.00
2023-03-27T10:02:18.362Z,96707.44
2023-03-27T10:04:59.395Z,96715.31
2023-03-27T10:07:33.949Z,96734.28
2023-03-27T10:10:21.229Z,96733.41
2023-03-27T10:13:14.164Z,96720.94
2023-03-27T10:15:49.881Z,96712.81
2023-03-27T10:18:36.257Z,96744.06
2023-03-27T10:21:17.805Z,96746.31
2023-03-27T10:23:49.766Z,96737.81
2023-03-27T10:26:49.483Z,96750.69
2023-03-27T10:29:27.028Z,96734.63
2023-03-27T10:31:57.289Z,96778.16
2023-03-27T10:34:51.615Z,96739.88
2023-03-27T10:37:50.124Z,96775.75
2023-03-27T10:40:22.658Z,96801.59
2023-03-27T10:42:57.896Z,96740.75
2023-03-27T10:45:26.728Z,96744.78
2023-03-27T10:48:02.725Z,96811.03
2023-03-27T10:50:42.997Z,96801.84
2023-03-27T10:53:18.328Z,96755.31
2023-03-27T10:56:09.021Z,96784.34
2023-03-27T10:58:48.761Z,96782.41
2023-03-27T11:01:26.433Z,96799.84
2023-03-27T11:04:00.694Z,96798.44
2023-03-27T11:06:34.448Z,96745.00
2023-03-27T11:09:10.145Z,96830.53
2023-03-27T11:11:52.573Z,96802.81
2023-03-27T11:14:25.597Z,96824.75
2023-03-27T11:16:58.239Z,96776.00
2023-03-27T11:19:51.405Z,96832.47
2023-03-27T11:22:32.352Z,96803.38
2023-03-27T11:25:07.738Z,96852.34
2023-03-27T11:27:43.174Z,96872.94
2023-03-27T11:30:29.972Z,96856.94
2023-03-27T11:33:10.473Z,96905.19
2023-03-27T11:35:43.164Z,96881.34
2023-03-27T11:38:35.077Z,96879.31
2023-03-27T11:41:04.824Z,96918.41
2023-03-27T11:43:37.600Z,96874.56
2023-03-27T11:46:19.413Z,96934.75
2023-03-27T11:49:04.444Z,96905.38
2023-03-27T11:51:45.627Z,96901.75
2023-03-27T11:54:29.467Z,96918.69
2023-03-27T11:57:07.227Z,96898.06
2023-03-27T12:00:18.052Z,96953.84
2023-03-27T12:03:22.075Z,96947.97
2023-03-27T12:06:02.175Z,96967.69
2023-03-27T12:08:50.014Z,96972.06
2023-03-27T12:11:22.212Z,97019.09
2023-03-27T12:14:40.142Z,96996.41
2023-03-27T12:17:22.641Z,96988.41
2023-03-27T12:20:43.633Z,97022.84
2023-03-27T12:23:30.938Z,97017.88
2023-03-27T12:26:56.520Z,96981.16
2023-03-27T12:29:52.047Z,97064.84
2023-03-27T12:32:36.019Z,97027.25
2023-03-27T12:35:11.602Z,97080.47
2023-03-27T12:37:48.727Z,97085.47
2023-03-27T12:40:30.003Z,97075.97
2023-03-27T12:43:12.173Z,97081.94
2023-03-27T12:45:53.249Z,97092.75
2023-03-27T12:48:23.809Z,97092.75
2023-03-27T12:50:58.208Z,97098.94
2023-03-27T12:53:48.243Z,97134.75
2023-03-27T12:56:27.404Z,97102.66
2023-03-27T12:58:57.770Z,97151.06
2023-03-27T13:02:14.604Z,97105.88
2023-03-27T13:05:24.124Z,97154.88
2023-03-27T13:08:10.317Z,97176.00
2023-03-27T13:11:03.462Z,97203.34
2023-03-27T13:13:59.581Z,97163.38
2023-03-27T13:16:49.093Z,97193.84
2023-03-27T13:19:31.962Z,97145.22
2023-03-27T13:22:29.075Z,97195.59
2023-03-27T13:25:18.666Z,97187.16
2023-03-27T13:28:03.593Z,97193.22
2023-03-27T13:30:45.583Z,97198.63
2023-03-27T13:33:43.699Z,97234.84
2023-03-27T13:36:19.988Z,97227.56
2023-03-27T13:39:21.247Z,97225.75
2023-03-27T13:42:12.784Z,97265.72
2023-03-27T13:44:58.349Z,97239.78
2023-03-27T13:47:53.037Z,97238.91
2023-03-27T13:50:52.142Z,97223.84
2023-03-27T13:53:33.261Z,97252.63
2023-03-27T13:56:35.438Z,97254.25
2023-03-27T13:59:52.861Z,97285.06
2023-03-27T14:03:08.063Z,97304.78
2023-03-27T14:06:06.672Z,97322.19
2023-03-27T14:08:48.159Z,97296.44
2023-03-27T14:12:01.505Z,97275.50
2023-03-27T14:15:34.012Z,97288.13
2023-03-27T14:18:55.929Z,97301.16
2023-03-27T14:21:37.879Z,97305.00
2023-03-27T14:24:23.278Z,97299.00
2023-03-27T14:26:57.849Z,97312.59
2023-03-27T14:29:26.831Z,97319.75
2023-03-27T14:32:03.622Z,97305.31
2023-03-27T14:34:47.377Z,97350.81
2023-03-27T14:37:42.066Z,97345.72
2023-03-27T14:40:32.844Z,97352.72
2023-03-27T14:43:08.058Z,97410.75
2023-03-27T14:45:40.308Z,97356.47
2023-03-27T14:48:21.128Z,97345.50
2023-03-27T14:50:53.994Z,97391.59
2023-03-27T14:53:27.719Z,97348.34
2023-03-27T14:56:29.575Z,97379.63
2023-03-27T14:59:22.366Z,97369.84
2023-03-27T15:01:58.181Z,97412.75
2023-03-27T15:04:27.621Z,97400.75
2023-03-27T15:07:13.245Z,97413.44
2023-03-27T15:10:04.219Z,97402.50
2023-03-27T15:12:51.610Z,97418.91
2023-03-27T15:15:26.511Z,97412.47
2023-03-27T15:17:56.136Z,97448.69
2023-03-27T15:20:28.142Z,97432.72
2023-03-27T15:23:02.910Z,97451.66
2023-03-27T15:25:39.421Z,97407.19
2023-03-27T15:28:11.582Z,97472.31
2023-03-27T15:30:46.224Z,97419.31
2023-03-27T15:33:22.038Z,97489.09
2023-03-27T15:35:54.376Z,97522.09
2023-03-27T15:38:29.960Z,97486.09
2023-03-27T15:41:23.110Z,97482.16
2023-03-27T15:43:53.189Z,97491.44
2023-03-27T15:46:26.580Z,97458.88
2023-03-27T15:48:56.566Z,97497.38
2023-03-27T15:51:31.796Z,97447.94
2023-03-27T15:54:00.232Z,97484.38
2023-03-27T15:56:38.169Z,97490.97
2023-03-27T15:59:08.347Z,97480.28
2023-03-27T16:01:39.678Z,97507.97
2023-03-27T16:04:09.972Z,97500.91
2023-03-27T16:06:41.051Z,97511.38
2023-03-27T16:09:23.354Z,97510.69
2023-03-27T16:11:52.995Z,97511.09
2023-03-27T16:14:27.907Z,97511.06
2023-03-27T16:17:11.448Z,97506.38
2023-03-27T16:19:44.138Z,97518.91
2023-03-27T16:22:13.295Z,97515.13
2023-03-27T16:24:41.501Z,97536.50
2023-03-27T16:27:11.388Z,97527.63
2023-03-27T16:29:39.433Z,97521.06
2023-03-27T16:32:12.328Z,97544.19
2023-03-27T16:34:40.730Z,97575.41
2023-03-27T16:37:09.028Z,97560.91
2023-03-27T16:39:37.841Z,97544.19
2023-03-27T16:42:06.108Z,97547.28
2023-03-27T16:44:34.223Z,97558.44
2023-03-27T16:47:02.581Z,97593.31
2023-03-27T16:49:32.059Z,97556.53
2023-03-27T16:52:00.148Z,97565.16
2023-03-27T16:54:28.232Z,97601.94
2023-03-27T16:56:56.296Z,97590.56
2023-03-27T16:59:32.026Z,97608.56
2023-03-27T17:02:07.969Z,97604.38
2023-03-27T17:04:38.214Z,97625.09
2023-03-27T17:07:07.272Z,97619.28
2023-03-27T17:09:35.494Z,97641.28
2023-03-27T17:12:04.252Z,97636.69
2023-03-27T17:14:32.364Z,97607.22
2023-03-27T17:17:00.457Z,97625.09
2023-03-27T17:19:28.536Z,97624.88
2023-03-27T17:21:58.053Z,97640.25
2023-03-27T17:24:26.162Z,97633.47
2023-03-27T17:26:55.602Z,97640.34
2023-03-27T17:29:24.010Z,97639.69
2023-03-27T17:31:52.557Z,97635.22
2023-03-27T17:34:20.727Z,97652.03
2023-03-27T17:36:54.221Z,97649.41
2023-03-27T17:39:26.985Z,97668.75
2023-03-27T17:41:55.373Z,97648.47
2023-03-27T17:44:23.564Z,97682.25
2023-03-27T17:46:51.919Z,97677.47
2023-03-27T17:49:20.114Z,97680.44
2023-03-27T17:51:48.176Z,97665.38
2023-03-27T17:54:16.579Z,97670.53
2023-03-27T17:56:46.654Z,97694.13
2023-03-27T17:59:15.429Z,97676.88
2023-03-27T18:01:46.052Z,97696.09
2023-03-27T18:04:15.445Z,97687.53
2023-03-27T18:06:43.497Z,97695.63
2023-03-27T18:09:11.527Z,97696.75
2023-03-27T18:11:44.612Z,97714.69
2023-03-27T18:14:18.155Z,97699.03
2023-03-27T18:16:46.341Z,97704.41
2023-03-27T18:19:14.694Z,97718.84
2023-03-27T18:21:43.170Z,97708.88
2023-03-27T18:24:11.421Z,97737.38
2023-03-27T18:26:39.516Z,97726.00
2023-03-27T18:29:07.581Z,97702.63
2023-03-27T18:31:37.187Z,97710.25
2023-03-27T18:34:05.251Z,97730.06
2023-03-27T18:36:33.397Z,97743.47
2023-03-27T18:39:01.431Z,97747.59
2023-03-27T18:41:29.612Z,97714.16
2023-03-27T18:43:57.659Z,97732.56
2023-03-27T18:46:25.927Z,97728.75
2023-03-27T18:48:57.096Z,97734.31
2023-03-27T18:51:25.424Z,97730.22
2023-03-27T18:53:53.585Z,97773.81
2023-03-27T18:56:21.674Z,97749.97
2023-03-27T18:58:49.793Z,97762.28
2023-03-27T19:01:18.456Z,97752.81
2023-03-27T19:03:46.571Z,97774.38
2023-03-27T19:06:16.052Z,97762.19
2023-03-27T19:08:45.465Z,97766.75
2023-03-27T19:11:13.631Z,97793.41
2023-03-27T19:14:00.470Z,97767.84
2023-03-27T19:16:36.716Z,97781.00
2023-03-27T19:19:24.105Z,97777.31
2023-03-27T19:21:56.440Z,97762.63
2023-03-27T19:24:40.750Z,97783.75
2023-03-27T19:27:23.007Z,97802.38
2023-03-27T19:29:53.102Z,97765.56
2023-03-27T19:32:21.355Z,97788.84
2023-03-27T19:34:49.457Z,97781.69
2023-03-27T19:37:18.867Z,97766.41
2023-03-27T19:39:47.176Z,97780.47
2023-03-27T19:42:15.906Z,97781.13
2023-03-27T19:44:44.057Z,97787.34
2023-03-27T19:47:12.299Z,97772.50
2023-03-27T19:49:41.229Z,97802.16
2023-03-27T19:52:22.859Z,97775.22
2023-03-27T19:54:51.071Z,97782.88
2023-03-27T19:57:19.257Z,97783.72
2023-03-27T19:59:47.407Z,97791.38
2023-03-27T20:02:16.032Z,97798.25
2023-03-27T20:04:44.328Z,97786.66
2023-03-27T20:07:12.881Z,97794.75
2023-03-27T20:09:42.328Z,97797.13
2023-03-27T20:12:11.400Z,97809.41
2023-03-27T20:14:39.508Z,97804.50
2023-03-27T20:17:12.207Z,97803.78
2023-03-27T20:19:48.867Z,97817.69
2023-03-27T20:22:20.740Z,97807.81
2023-03-27T20:24:50.612Z,97794.81
2023-03-27T20:27:20.140Z,97802.38
2023-03-27T20:29:48.291Z,97799.25
2023-03-27T20:32:16.454Z,97799.56
2023-03-27T20:34:46.380Z,97805.81
2023-03-27T20:37:15.016Z,97811.63
2023-03-27T20:40:07.483Z,97811.78
2023-03-27T20:42:39.014Z,97812.22
2023-03-27T20:45:09.075Z,97799.19
2023-03-27T20:47:43.041Z,97810.69
2023-03-27T20:50:11.842Z,97813.66
2023-03-27T20:52:39.878Z,97817.16
2023-03-27T20:55:13.372Z,97803.63
2023-03-27T20:57:45.595Z,97810.78
2023-03-27T21:00:16.849Z,97818.84
2023-03-27T21:02:45.020Z,97818.31
2023-03-27T21:05:13.116Z,97824.56
2023-03-27T21:07:41.330Z,97818.94
2023-03-27T21:10:11.883Z,97820.88
2023-03-27T21:12:40.829Z,97828.72
2023-03-27T21:15:10.417Z,97834.97
2023-03-27T21:17:38.564Z,97832.31
2023-03-27T21:20:08.122Z,97837.78
2023-03-27T21:22:36.172Z,97835.56
2023-03-27T21:25:04.370Z,97830.22
2023-03-27T21:27:33.934Z,97821.19
2023-03-27T21:30:02.127Z,97836.25
2023-03-27T21:32:30.349Z,97836.44
2023-03-27T21:34:58.559Z,97843.03
2023-03-27T21:37:26.621Z,97839.41
2023-03-27T21:39:54.725Z,97831.72
2023-03-27T21:42:22.882Z,97838.66
2023-03-27T21:44:55.609Z,97845.09
2023-03-27T21:47:34.461Z,97834.81
2023-03-27T21:50:10.427Z,97832.69
2023-03-27T21:52:38.576Z,97839.56
2023-03-27T21:55:06.932Z,97838.78
2023-03-27T21:57:35.013Z,97847.50
2023-03-27T22:00:05.664Z,97849.41
2023-03-27T22:02:41.183Z,97846.34
2023-03-27T22:05:09.593Z,97850.53
2023-03-27T22:07:37.883Z,97858.72
2023-03-27T22:10:07.348Z,97848.50
2023-03-27T22:12:36.500Z,97849.25
2023-03-27T22:15:08.042Z,97852.03
2023-03-27T22:17:37.522Z,97855.50
2023-03-27T22:20:06.600Z,97859.44
2023-03-27T22:22:35.098Z,97855.59
2023-03-27T22:25:03.528Z,97861.19
2023-03-27T22:27:32.028Z,97867.47
2023-03-27T22:30:00.368Z,97865.28
2023-03-27T22:32:29.927Z,97865.56
2023-03-27T22:34:58.171Z,97869.66
2023-03-27T22:37:26.291Z,97868.78
2023-03-27T22:39:54.342Z,97871.63
2023-03-27T22:42:22.409Z,97877.38
2023-03-27T22:44:50.501Z,97865.63
2023-03-27T22:47:18.536Z,97871.06
2023-03-27T22:49:47.966Z,97874.13
2023-03-27T22:52:16.799Z,97867.22
2023-03-27T22:54:44.872Z,97884.94
2023-03-27T22:57:12.989Z,97876.91
2023-03-27T22:59:41.362Z,97886.91
2023-03-27T23:02:09.654Z,97884.84
2023-03-27T23:04:37.802Z,97886.63
2023-03-27T23:07:07.370Z,97885.50
2023-03-27T23:09:35.585Z,97881.84
2023-03-27T23:12:03.696Z,97880.88
2023-03-27T23:14:31.966Z,97884.97
2023-03-27T23:17:00.628Z,97887.28
2023-03-27T23:19:28.740Z,97888.88
2023-03-27T23:21:56.824Z,97882.81
2023-03-27T23:24:26.380Z,97884.00
2023-03-27T23:26:54.466Z,97895.03
2023-03-27T23:29:22.754Z,97901.16
2023-03-27T23:31:50.862Z,97899.94
2023-03-27T23:34:18.974Z,97900.31
2023-03-27T23:36:47.117Z,97898.66
2023-03-27T23:39:15.504Z,97896.75
2023-03-27T23:41:44.902Z,97897.28
2023-03-27T23:44:13.073Z,97899.56
2023-03-27T23:46:41.486Z,97897.81
2023-03-27T23:49:09.589Z,97900.06
2023-03-27T23:51:37.622Z,97893.44
2023-03-27T23:54:05.964Z,97884.97
2023-03-27T23:56:34.009Z,97896.03
2023-03-27T23:59:03.511Z,97884.13
